createdAt,value
2017-02-26T00:00:23.903Z,0
2017-02-26T00:01:23.119Z,0
2017-02-26T00:02:23.529Z,0
2017-02-26T00:03:23.409Z,0
2017-02-26T00:04:23.598Z,0
2017-02-26T00:05:24.014Z,0
2017-02-26T00:06:23.652Z,0
2017-02-26T00:07:24.472Z,0
2017-02-26T00:08:24.757Z,0
2017-02-26T00:09:24.510Z,0
2017-02-26T00:10:24.550Z,0
2017-02-26T00:11:24.572Z,0
2017-02-26T00:12:24.200Z,0
2017-02-26T00:13:24.221Z,0
2017-02-26T00:14:24.250Z,0
2017-02-26T00:15:24.275Z,0
2017-02-26T00:16:24.304Z,0
2017-02-26T00:17:23.924Z,0
2017-02-26T00:18:24.761Z,0
2017-02-26T00:19:24.785Z,0
2017-02-26T00:20:24.423Z,0
2017-02-26T00:21:24.864Z,0
2017-02-26T00:22:24.079Z,0
2017-02-26T00:23:24.131Z,0
2017-02-26T00:24:23.729Z,0
2017-02-26T00:25:24.538Z,0
2017-02-26T00:26:24.179Z,0
2017-02-26T00:27:24.204Z,0
2017-02-26T00:28:25.031Z,0
2017-02-26T00:29:25.036Z,0
2017-02-26T00:30:25.069Z,0
2017-02-26T00:31:24.710Z,0
2017-02-26T00:32:24.339Z,0
2017-02-26T00:33:24.348Z,0
2017-02-26T00:34:25.428Z,0
2017-02-26T00:35:24.417Z,0
2017-02-26T00:36:24.867Z,0
2017-02-26T00:37:24.478Z,0
2017-02-26T00:38:24.500Z,0
2017-02-26T00:39:24.381Z,0
2017-02-26T00:40:24.957Z,0
2017-02-26T00:41:24.578Z,0
2017-02-26T00:42:24.993Z,0
2017-02-26T00:43:24.663Z,0
2017-02-26T00:44:25.303Z,0
2017-02-26T00:45:25.099Z,0
2017-02-26T00:46:24.721Z,0
2017-02-26T00:47:25.126Z,0
2017-02-26T00:48:25.170Z,0
2017-02-26T00:49:25.442Z,0
2017-02-26T00:50:24.824Z,0
2017-02-26T00:51:25.632Z,0
2017-02-26T00:52:25.665Z,0
2017-02-26T00:53:25.290Z,0
2017-02-26T00:54:25.965Z,0
2017-02-26T00:55:24.959Z,0
2017-02-26T00:56:25.371Z,0
2017-02-26T00:57:25.409Z,0
2017-02-26T00:58:25.818Z,0
2017-02-26T00:59:26.107Z,0
2017-02-26T01:00:25.475Z,0
2017-02-26T01:01:25.908Z,0
2017-02-26T01:02:25.525Z,0
2017-02-26T01:03:25.557Z,0
2017-02-26T01:04:25.850Z,0
2017-02-26T01:05:25.206Z,0
2017-02-26T01:06:25.635Z,0
2017-02-26T01:07:25.672Z,0
2017-02-26T01:08:25.306Z,0
2017-02-26T01:09:25.986Z,0
2017-02-26T01:10:26.138Z,0
2017-02-26T01:11:25.779Z,0
2017-02-26T01:12:26.196Z,0
2017-02-26T01:13:25.880Z,0
2017-02-26T01:14:26.097Z,0
2017-02-26T01:15:26.274Z,0
2017-02-26T01:16:25.914Z,0
2017-02-26T01:17:26.319Z,0
2017-02-26T01:18:25.564Z,0
2017-02-26T01:19:26.653Z,0
2017-02-26T01:20:26.014Z,0
2017-02-26T01:21:26.430Z,0
2017-02-26T01:22:26.062Z,0
2017-02-26T01:23:25.697Z,0
2017-02-26T01:24:26.376Z,0
2017-02-26T01:25:25.749Z,0
2017-02-26T01:26:25.775Z,0
2017-02-26T01:27:25.823Z,0
2017-02-26T01:28:25.823Z,0
2017-02-26T01:29:26.108Z,0
2017-02-26T01:30:26.272Z,0
2017-02-26T01:31:26.290Z,0
2017-02-26T01:32:26.720Z,0
2017-02-26T01:33:26.358Z,0
2017-02-26T01:34:26.247Z,0
2017-02-26T01:35:26.015Z,0
2017-02-26T01:36:26.427Z,0
2017-02-26T01:37:26.466Z,0
2017-02-26T01:38:26.882Z,0
2017-02-26T01:39:26.363Z,0
2017-02-26T01:40:26.551Z,0
2017-02-26T01:41:26.622Z,0
2017-02-26T01:42:27.009Z,0
2017-02-26T01:43:26.234Z,0
2017-02-26T01:44:26.523Z,0
2017-02-26T01:45:25.868Z,0
2017-02-26T01:46:26.308Z,0
2017-02-26T01:47:26.717Z,0
2017-02-26T01:48:26.369Z,0
2017-02-26T01:49:27.021Z,0
2017-02-26T01:50:27.215Z,0
2017-02-26T01:51:26.825Z,0
2017-02-26T01:52:26.863Z,0
2017-02-26T01:53:26.892Z,0
2017-02-26T01:54:27.576Z,0
2017-02-26T01:55:26.546Z,0
2017-02-26T01:56:26.171Z,0
2017-02-26T01:57:26.608Z,0
2017-02-26T01:58:27.007Z,0
2017-02-26T01:59:27.053Z,0
2017-02-26T02:00:27.474Z,0
2017-02-26T02:01:27.105Z,0
2017-02-26T02:02:27.114Z,0
2017-02-26T02:03:26.356Z,0
2017-02-26T02:04:27.564Z,0
2017-02-26T02:05:26.801Z,0
2017-02-26T02:06:27.238Z,0
2017-02-26T02:07:26.868Z,0
2017-02-26T02:08:27.669Z,0
2017-02-26T02:09:27.304Z,0
2017-02-26T02:10:27.330Z,0
2017-02-26T02:11:27.358Z,0
2017-02-26T02:12:27.384Z,0
2017-02-26T02:13:27.011Z,0
2017-02-26T02:14:27.051Z,0
2017-02-26T02:15:27.080Z,0
2017-02-26T02:16:27.501Z,0
2017-02-26T02:17:27.101Z,0
2017-02-26T02:18:27.159Z,0
2017-02-26T02:19:27.559Z,0
2017-02-26T02:20:27.595Z,0
2017-02-26T02:21:27.620Z,0
2017-02-26T02:22:27.636Z,0
2017-02-26T02:23:27.685Z,0
2017-02-26T02:24:27.353Z,0
2017-02-26T02:25:27.971Z,0
2017-02-26T02:26:27.356Z,0
2017-02-26T02:27:27.389Z,0
2017-02-26T02:28:28.225Z,0
2017-02-26T02:29:28.233Z,0
2017-02-26T02:30:27.736Z,0
2017-02-26T02:31:28.311Z,0
2017-02-26T02:32:28.315Z,0
2017-02-26T02:33:27.540Z,0
2017-02-26T02:34:27.565Z,0
2017-02-26T02:35:27.845Z,0
2017-02-26T02:36:27.614Z,0
2017-02-26T02:37:28.455Z,0
2017-02-26T02:38:28.080Z,0
2017-02-26T02:39:28.476Z,0
2017-02-26T02:40:28.774Z,0
2017-02-26T02:41:28.147Z,0
2017-02-26T02:42:28.171Z,0
2017-02-26T02:43:27.812Z,0
2017-02-26T02:44:27.455Z,0
2017-02-26T02:45:28.105Z,0
2017-02-26T02:46:27.882Z,0
2017-02-26T02:47:27.915Z,0
2017-02-26T02:48:27.939Z,0
2017-02-26T02:49:28.744Z,0
2017-02-26T02:50:29.037Z,0
2017-02-26T02:51:28.421Z,0
2017-02-26T02:52:28.438Z,0
2017-02-26T02:53:28.459Z,0
2017-02-26T02:54:28.494Z,0
2017-02-26T02:55:29.160Z,0
2017-02-26T02:56:28.537Z,0
2017-02-26T02:57:28.571Z,0
2017-02-26T02:58:28.583Z,0
2017-02-26T02:59:28.616Z,0
2017-02-26T03:00:28.904Z,0
2017-02-26T03:01:28.264Z,0
2017-02-26T03:02:28.322Z,0
2017-02-26T03:03:28.321Z,0
2017-02-26T03:04:28.754Z,0
2017-02-26T03:05:29.040Z,0
2017-02-26T03:06:29.201Z,0
2017-02-26T03:07:29.241Z,0
2017-02-26T03:08:29.258Z,0
2017-02-26T03:09:29.275Z,0
2017-02-26T03:10:29.171Z,0
2017-02-26T03:11:28.532Z,0
2017-02-26T03:12:28.969Z,0
2017-02-26T03:13:28.593Z,0
2017-02-26T03:14:28.215Z,0
2017-02-26T03:15:29.291Z,0
2017-02-26T03:16:28.672Z,0
2017-02-26T03:17:29.130Z,0
2017-02-26T03:18:29.113Z,0
2017-02-26T03:19:29.166Z,0
2017-02-26T03:20:29.825Z,0
2017-02-26T03:21:28.801Z,0
2017-02-26T03:22:29.249Z,0
2017-02-26T03:23:28.841Z,0
2017-02-26T03:24:29.273Z,0
2017-02-26T03:25:29.166Z,0
2017-02-26T03:26:28.927Z,0
2017-02-26T03:27:29.336Z,0
2017-02-26T03:28:29.762Z,0
2017-02-26T03:29:29.800Z,0
2017-02-26T03:30:29.669Z,0
2017-02-26T03:31:29.050Z,0
2017-02-26T03:32:29.503Z,0
2017-02-26T03:33:28.717Z,0
2017-02-26T03:34:29.136Z,0
2017-02-26T03:35:29.824Z,0
2017-02-26T03:36:29.602Z,0
2017-02-26T03:37:29.603Z,0
2017-02-26T03:38:29.248Z,0
2017-02-26T03:39:29.282Z,0
2017-02-26T03:40:29.148Z,0
2017-02-26T03:41:29.715Z,0
2017-02-26T03:42:29.751Z,0
2017-02-26T03:43:30.175Z,0
2017-02-26T03:44:29.397Z,0
2017-02-26T03:45:30.067Z,0
2017-02-26T03:46:30.246Z,0
2017-02-26T03:47:29.867Z,0
2017-02-26T03:48:29.899Z,0
2017-02-26T03:49:29.551Z,0
2017-02-26T03:50:30.200Z,0
2017-02-26T03:51:29.627Z,0
2017-02-26T03:52:30.398Z,0
2017-02-26T03:53:30.423Z,0
2017-02-26T03:54:30.447Z,0
2017-02-26T03:55:30.339Z,0
2017-02-26T03:56:30.111Z,0
2017-02-26T03:57:30.538Z,0
2017-02-26T03:58:29.754Z,0
2017-02-26T03:59:30.181Z,0
2017-02-26T04:00:30.459Z,0
2017-02-26T04:01:30.256Z,0
2017-02-26T04:02:30.293Z,0
2017-02-26T04:03:30.301Z,0
2017-02-26T04:04:30.323Z,0
2017-02-26T04:05:30.983Z,0
2017-02-26T04:06:30.776Z,0
2017-02-26T04:07:30.400Z,0
2017-02-26T04:08:30.436Z,0
2017-02-26T04:09:30.050Z,0
2017-02-26T04:10:30.100Z,0
2017-02-26T04:11:30.107Z,0
2017-02-26T04:12:30.528Z,0
2017-02-26T04:13:30.952Z,0
2017-02-26T04:14:30.965Z,0
2017-02-26T04:15:29.810Z,0
2017-02-26T04:16:30.282Z,0
2017-02-26T04:17:30.659Z,0
2017-02-26T04:18:30.696Z,0
2017-02-26T04:19:30.319Z,0
2017-02-26T04:20:30.337Z,0
2017-02-26T04:21:30.755Z,0
2017-02-26T04:22:31.181Z,0
2017-02-26T04:23:31.212Z,0
2017-02-26T04:24:30.847Z,0
2017-02-26T04:25:30.877Z,0
2017-02-26T04:26:30.890Z,0
2017-02-26T04:27:30.927Z,0
2017-02-26T04:28:30.543Z,0
2017-02-26T04:29:30.969Z,0
2017-02-26T04:30:30.996Z,0
2017-02-26T04:31:30.886Z,0
2017-02-26T04:32:31.046Z,0
2017-02-26T04:33:31.076Z,0
2017-02-26T04:34:30.312Z,0
2017-02-26T04:35:30.756Z,0
2017-02-26T04:36:31.802Z,0
2017-02-26T04:37:30.824Z,0
2017-02-26T04:38:31.208Z,0
2017-02-26T04:39:31.236Z,0
2017-02-26T04:40:31.249Z,0
2017-02-26T04:41:31.541Z,0
2017-02-26T04:42:31.303Z,0
2017-02-26T04:43:31.339Z,0
2017-02-26T04:44:30.954Z,0
2017-02-26T04:45:30.636Z,0
2017-02-26T04:46:32.049Z,0
2017-02-26T04:47:31.433Z,0
2017-02-26T04:48:31.066Z,0
2017-02-26T04:49:31.496Z,0
2017-02-26T04:50:31.517Z,0
2017-02-26T04:51:31.792Z,0
2017-02-26T04:52:31.173Z,0
2017-02-26T04:53:31.986Z,0
2017-02-26T04:54:31.219Z,0
2017-02-26T04:55:31.639Z,0
2017-02-26T04:56:31.929Z,0
2017-02-26T04:57:32.094Z,0
2017-02-26T04:58:31.717Z,0
2017-02-26T04:59:31.758Z,0
2017-02-26T05:00:32.176Z,0
2017-02-26T05:01:32.052Z,0
2017-02-26T05:02:31.446Z,0
2017-02-26T05:03:31.452Z,0
2017-02-26T05:04:31.507Z,0
2017-02-26T05:05:31.515Z,0
2017-02-26T05:06:32.580Z,0
2017-02-26T05:07:31.956Z,0
2017-02-26T05:08:32.386Z,0
2017-02-26T05:09:32.407Z,0
2017-02-26T05:10:31.626Z,0
2017-02-26T05:11:31.919Z,0
2017-02-26T05:12:32.092Z,0
2017-02-26T05:13:31.716Z,0
2017-02-26T05:14:32.133Z,0
2017-02-26T05:15:32.169Z,0
2017-02-26T05:16:32.868Z,0
2017-02-26T05:17:32.615Z,0
2017-02-26T05:18:32.637Z,0
2017-02-26T05:19:32.670Z,0
2017-02-26T05:20:32.290Z,0
2017-02-26T05:21:32.570Z,0
2017-02-26T05:22:32.370Z,0
2017-02-26T05:23:31.972Z,0
2017-02-26T05:24:32.805Z,0
2017-02-26T05:25:32.057Z,0
2017-02-26T05:26:32.299Z,0
2017-02-26T05:27:32.867Z,0
2017-02-26T05:28:32.128Z,0
2017-02-26T05:29:32.561Z,0
2017-02-26T05:30:32.545Z,0
2017-02-26T05:31:33.230Z,0
2017-02-26T05:32:31.851Z,0
2017-02-26T05:33:33.035Z,0
2017-02-26T05:34:32.269Z,0
2017-02-26T05:35:33.074Z,0
2017-02-26T05:36:32.950Z,0
2017-02-26T05:37:32.739Z,0
2017-02-26T05:38:32.363Z,0
2017-02-26T05:39:33.200Z,0
2017-02-26T05:40:32.037Z,0
2017-02-26T05:41:33.099Z,0
2017-02-26T05:42:32.874Z,0
2017-02-26T05:43:32.491Z,0
2017-02-26T05:44:33.331Z,0
2017-02-26T05:45:33.337Z,0
2017-02-26T05:46:33.213Z,0
2017-02-26T05:47:33.006Z,0
2017-02-26T05:48:33.418Z,0
2017-02-26T05:49:33.071Z,0
2017-02-26T05:50:32.725Z,0
2017-02-26T05:51:33.752Z,0
2017-02-26T05:52:33.123Z,0
2017-02-26T05:53:33.143Z,0
2017-02-26T05:54:32.779Z,0
2017-02-26T05:55:33.208Z,0
2017-02-26T05:56:33.224Z,0
2017-02-26T05:57:33.653Z,0
2017-02-26T05:58:32.882Z,0
2017-02-26T05:59:33.718Z,0
2017-02-26T06:00:33.739Z,0
2017-02-26T06:01:33.754Z,0
2017-02-26T06:02:32.996Z,4
2017-02-26T06:03:33.433Z,4
2017-02-26T06:04:33.465Z,4
2017-02-26T06:05:33.471Z,4
2017-02-26T06:06:33.887Z,4
2017-02-26T06:07:34.187Z,8
2017-02-26T06:08:33.553Z,8
2017-02-26T06:09:33.569Z,8
2017-02-26T06:10:33.218Z,8
2017-02-26T06:11:33.235Z,8
2017-02-26T06:12:33.522Z,12
2017-02-26T06:13:33.680Z,12
2017-02-26T06:14:33.302Z,16
2017-02-26T06:15:34.133Z,16
2017-02-26T06:16:34.162Z,16
2017-02-26T06:17:34.447Z,20
2017-02-26T06:18:34.201Z,20
2017-02-26T06:19:33.466Z,24
2017-02-26T06:20:33.858Z,28
2017-02-26T06:21:33.493Z,28
2017-02-26T06:22:34.167Z,28
2017-02-26T06:23:34.341Z,32
2017-02-26T06:24:33.197Z,32
2017-02-26T06:25:34.005Z,36
2017-02-26T06:26:34.030Z,40
2017-02-26T06:27:33.905Z,44
2017-02-26T06:28:33.695Z,48
2017-02-26T06:29:34.089Z,52
2017-02-26T06:30:34.143Z,52
2017-02-26T06:31:34.150Z,60
2017-02-26T06:32:34.827Z,68
2017-02-26T06:33:33.803Z,72
2017-02-26T06:34:34.624Z,80
2017-02-26T06:35:34.256Z,84
2017-02-26T06:36:33.485Z,96
2017-02-26T06:37:34.566Z,108
2017-02-26T06:38:34.366Z,120
2017-02-26T06:39:34.761Z,136
2017-02-26T06:40:34.377Z,148
2017-02-26T06:41:34.809Z,172
2017-02-26T06:42:34.736Z,192
2017-02-26T06:43:34.078Z,204
2017-02-26T06:44:34.163Z,208
2017-02-26T06:45:34.520Z,212
2017-02-26T06:46:34.545Z,212
2017-02-26T06:47:34.820Z,224
2017-02-26T06:48:34.211Z,236
2017-02-26T06:49:34.639Z,248
2017-02-26T06:50:34.264Z,264
2017-02-26T06:51:34.676Z,276
2017-02-26T06:52:34.573Z,292
2017-02-26T06:53:35.126Z,312
2017-02-26T06:54:34.363Z,316
2017-02-26T06:55:34.009Z,320
2017-02-26T06:56:35.227Z,320
2017-02-26T06:57:35.077Z,320
2017-02-26T06:58:34.469Z,316
2017-02-26T06:59:34.877Z,312
2017-02-26T07:00:34.516Z,304
2017-02-26T07:01:34.951Z,316
2017-02-26T07:02:34.805Z,332
2017-02-26T07:03:35.002Z,332
2017-02-26T07:04:35.018Z,324
2017-02-26T07:05:34.267Z,316
2017-02-26T07:06:35.087Z,312
2017-02-26T07:07:34.965Z,316
2017-02-26T07:08:34.729Z,328
2017-02-26T07:09:35.157Z,328
2017-02-26T07:10:35.171Z,336
2017-02-26T07:11:35.596Z,344
2017-02-26T07:12:35.485Z,356
2017-02-26T07:13:34.461Z,368
2017-02-26T07:14:34.890Z,380
2017-02-26T07:15:34.911Z,392
2017-02-26T07:16:35.735Z,412
2017-02-26T07:17:35.636Z,428
2017-02-26T07:18:34.989Z,436
2017-02-26T07:19:35.028Z,436
2017-02-26T07:20:35.082Z,420
2017-02-26T07:21:35.879Z,396
2017-02-26T07:22:35.752Z,384
2017-02-26T07:23:35.912Z,388
2017-02-26T07:24:35.957Z,420
2017-02-26T07:25:35.602Z,456
2017-02-26T07:26:35.203Z,492
2017-02-26T07:27:36.267Z,512
2017-02-26T07:28:35.254Z,508
2017-02-26T07:29:35.287Z,520
2017-02-26T07:30:36.113Z,528
2017-02-26T07:31:34.955Z,540
2017-02-26T07:32:36.011Z,580
2017-02-26T07:33:35.792Z,612
2017-02-26T07:34:35.813Z,604
2017-02-26T07:35:35.853Z,568
2017-02-26T07:36:35.867Z,516
2017-02-26T07:37:35.750Z,460
2017-02-26T07:38:35.937Z,420
2017-02-26T07:39:36.347Z,408
2017-02-26T07:40:35.973Z,400
2017-02-26T07:41:36.004Z,400
2017-02-26T07:42:36.289Z,408
2017-02-26T07:43:35.659Z,428
2017-02-26T07:44:36.484Z,440
2017-02-26T07:45:36.112Z,444
2017-02-26T07:46:36.137Z,428
2017-02-26T07:47:36.825Z,412
2017-02-26T07:48:36.182Z,420
2017-02-26T07:49:35.827Z,448
2017-02-26T07:50:35.844Z,500
2017-02-26T07:51:35.473Z,556
2017-02-26T07:52:35.897Z,600
2017-02-26T07:53:35.930Z,648
2017-02-26T07:54:36.355Z,716
2017-02-26T07:55:36.380Z,828
2017-02-26T07:56:36.392Z,944
2017-02-26T07:57:36.428Z,1036
2017-02-26T07:58:36.853Z,1116
2017-02-26T07:59:36.073Z,1168
2017-02-26T08:00:36.502Z,1204
2017-02-26T08:01:36.147Z,1272
2017-02-26T08:02:36.950Z,1308
2017-02-26T08:03:36.613Z,1284
2017-02-26T08:04:36.609Z,1280
2017-02-26T08:05:37.031Z,1296
2017-02-26T08:06:36.304Z,1308
2017-02-26T08:07:37.088Z,1300
2017-02-26T08:08:36.321Z,1272
2017-02-26T08:09:36.373Z,1244
2017-02-26T08:10:36.034Z,1216
2017-02-26T08:11:36.818Z,1192
2017-02-26T08:12:36.456Z,1200
2017-02-26T08:13:36.709Z,1240
2017-02-26T08:14:36.506Z,1320
2017-02-26T08:15:36.906Z,1424
2017-02-26T08:16:36.927Z,1516
2017-02-26T08:17:36.963Z,1564
2017-02-26T08:18:37.235Z,1588
2017-02-26T08:19:37.438Z,1628
2017-02-26T08:20:37.038Z,1656
2017-02-26T08:21:37.474Z,1664
2017-02-26T08:22:36.707Z,1644
2017-02-26T08:23:37.771Z,1616
2017-02-26T08:24:37.541Z,1612
2017-02-26T08:25:36.777Z,1616
2017-02-26T08:26:36.414Z,1628
2017-02-26T08:27:37.223Z,1616
2017-02-26T08:28:37.130Z,1604
2017-02-26T08:29:37.680Z,1604
2017-02-26T08:30:37.318Z,1628
2017-02-26T08:31:36.952Z,1672
2017-02-26T08:32:36.957Z,1712
2017-02-26T08:33:37.639Z,1756
2017-02-26T08:34:37.425Z,1800
2017-02-26T08:35:37.448Z,1832
2017-02-26T08:36:37.473Z,1852
2017-02-26T08:37:37.486Z,1868
2017-02-26T08:38:37.770Z,1860
2017-02-26T08:39:37.975Z,1880
2017-02-26T08:40:37.588Z,1936
2017-02-26T08:41:36.829Z,1984
2017-02-26T08:42:36.830Z,2084
2017-02-26T08:43:37.910Z,2164
2017-02-26T08:44:37.287Z,2184
2017-02-26T08:45:37.704Z,2212
2017-02-26T08:46:37.737Z,2224
2017-02-26T08:47:37.768Z,2240
2017-02-26T08:48:38.439Z,2276
2017-02-26T08:49:37.823Z,2320
2017-02-26T08:50:37.879Z,2336
2017-02-26T08:51:37.869Z,2344
2017-02-26T08:52:38.297Z,2336
2017-02-26T08:53:38.179Z,2336
2017-02-26T08:54:37.950Z,2368
2017-02-26T08:55:38.391Z,2432
2017-02-26T08:56:38.000Z,2492
2017-02-26T08:57:37.653Z,2540
2017-02-26T08:58:37.506Z,2568
2017-02-26T08:59:38.079Z,2560
2017-02-26T09:00:38.508Z,2540
2017-02-26T09:01:38.146Z,2544
2017-02-26T09:02:38.565Z,2584
2017-02-26T09:03:38.434Z,2648
2017-02-26T09:04:38.211Z,2664
2017-02-26T09:05:37.844Z,2656
2017-02-26T09:06:37.875Z,2672
2017-02-26T09:07:38.302Z,2732
2017-02-26T09:08:38.958Z,2828
2017-02-26T09:09:37.551Z,2884
2017-02-26T09:10:38.019Z,2976
2017-02-26T09:11:38.404Z,3140
2017-02-26T09:12:38.433Z,3368
2017-02-26T09:13:39.105Z,3516
2017-02-26T09:14:38.479Z,3652
2017-02-26T09:15:38.127Z,3704
2017-02-26T09:16:38.139Z,3652
2017-02-26T09:17:38.557Z,3444
2017-02-26T09:18:38.836Z,3272
2017-02-26T09:19:38.638Z,3120
2017-02-26T09:20:38.659Z,3024
2017-02-26T09:21:37.871Z,2952
2017-02-26T09:22:37.913Z,2852
2017-02-26T09:23:38.973Z,2728
2017-02-26T09:24:39.171Z,2748
2017-02-26T09:25:38.771Z,2764
2017-02-26T09:26:39.204Z,2792
2017-02-26T09:27:38.839Z,2696
2017-02-26T09:28:39.531Z,2548
2017-02-26T09:29:38.478Z,2480
2017-02-26T09:30:38.531Z,2376
2017-02-26T09:31:38.567Z,2196
2017-02-26T09:32:38.587Z,1956
2017-02-26T09:33:38.988Z,1692
2017-02-26T09:34:38.613Z,1556
2017-02-26T09:35:39.098Z,1452
2017-02-26T09:36:39.087Z,1360
2017-02-26T09:37:38.339Z,1248
2017-02-26T09:38:39.141Z,1284
2017-02-26T09:39:39.545Z,1480
2017-02-26T09:40:39.193Z,1428
2017-02-26T09:41:39.218Z,1408
2017-02-26T09:42:39.257Z,1400
2017-02-26T09:43:39.700Z,1420
2017-02-26T09:44:38.893Z,1420
2017-02-26T09:45:38.922Z,1460
2017-02-26T09:46:39.342Z,1576
2017-02-26T09:47:39.363Z,1536
2017-02-26T09:48:39.812Z,1752
2017-02-26T09:49:39.671Z,2076
2017-02-26T09:50:39.841Z,2156
2017-02-26T09:51:39.464Z,2132
2017-02-26T09:52:39.902Z,2120
2017-02-26T09:53:39.520Z,1976
2017-02-26T09:54:40.195Z,2112
2017-02-26T09:55:39.609Z,2120
2017-02-26T09:56:39.230Z,2124
2017-02-26T09:57:39.271Z,2116
2017-02-26T09:58:39.271Z,2120
2017-02-26T09:59:40.337Z,2132
2017-02-26T10:00:39.312Z,2152
2017-02-26T10:01:39.746Z,2168
2017-02-26T10:02:40.173Z,2180
2017-02-26T10:03:39.399Z,2208
2017-02-26T10:04:40.088Z,2232
2017-02-26T10:05:40.255Z,2268
2017-02-26T10:06:39.892Z,2312
2017-02-26T10:07:39.535Z,2392
2017-02-26T10:08:39.144Z,2552
2017-02-26T10:09:40.604Z,2600
2017-02-26T10:10:39.996Z,2552
2017-02-26T10:11:39.609Z,2440
2017-02-26T10:12:39.654Z,2096
2017-02-26T10:13:39.683Z,2492
2017-02-26T10:14:40.736Z,2576
2017-02-26T10:15:39.718Z,2648
2017-02-26T10:16:40.145Z,2900
2017-02-26T10:17:40.570Z,3396
2017-02-26T10:18:40.611Z,3836
2017-02-26T10:19:40.482Z,3980
2017-02-26T10:20:40.288Z,3372
2017-02-26T10:21:40.273Z,1676
2017-02-26T10:22:39.905Z,1776
2017-02-26T10:23:40.330Z,1728
2017-02-26T10:24:40.635Z,3124
2017-02-26T10:25:39.991Z,3000
2017-02-26T10:26:39.624Z,2524
2017-02-26T10:27:40.444Z,2332
2017-02-26T10:28:40.464Z,2080
2017-02-26T10:29:41.182Z,2424
2017-02-26T10:30:40.547Z,3208
2017-02-26T10:31:40.956Z,3632
2017-02-26T10:32:40.972Z,4680
2017-02-26T10:33:40.613Z,4448
2017-02-26T10:34:40.894Z,4412
2017-02-26T10:35:40.667Z,4436
2017-02-26T10:36:40.712Z,4348
2017-02-26T10:37:40.344Z,4048
2017-02-26T10:38:41.144Z,3428
2017-02-26T10:39:41.425Z,2956
2017-02-26T10:40:40.030Z,2776
2017-02-26T10:41:40.842Z,2828
2017-02-26T10:42:40.852Z,2996
2017-02-26T10:43:40.884Z,3040
2017-02-26T10:44:40.918Z,2300
2017-02-26T10:45:40.958Z,2056
2017-02-26T10:46:40.175Z,2460
2017-02-26T10:47:40.623Z,2252
2017-02-26T10:48:41.037Z,2488
2017-02-26T10:49:41.050Z,3064
2017-02-26T10:50:41.325Z,3100
2017-02-26T10:51:40.308Z,3064
2017-02-26T10:52:40.749Z,3032
2017-02-26T10:53:41.152Z,3032
2017-02-26T10:54:41.194Z,3044
2017-02-26T10:55:41.872Z,3028
2017-02-26T10:56:40.866Z,3032
2017-02-26T10:57:41.264Z,3048
2017-02-26T10:58:40.916Z,3036
2017-02-26T10:59:41.313Z,3052
2017-02-26T11:00:42.002Z,3076
2017-02-26T11:01:40.987Z,3076
2017-02-26T11:02:41.808Z,3092
2017-02-26T11:03:41.832Z,3100
2017-02-26T11:04:41.449Z,3100
2017-02-26T11:05:41.754Z,3116
2017-02-26T11:06:41.126Z,3128
2017-02-26T11:07:41.949Z,3136
2017-02-26T11:08:41.962Z,3168
2017-02-26T11:09:42.009Z,3252
2017-02-26T11:10:41.865Z,3324
2017-02-26T11:11:41.254Z,3360
2017-02-26T11:12:41.687Z,3396
2017-02-26T11:13:41.708Z,3432
2017-02-26T11:14:41.340Z,3652
2017-02-26T11:15:42.033Z,3932
2017-02-26T11:16:42.190Z,4076
2017-02-26T11:17:41.422Z,4140
2017-02-26T11:18:41.851Z,4184
2017-02-26T11:19:41.880Z,4284
2017-02-26T11:20:41.769Z,4400
2017-02-26T11:21:41.926Z,4552
2017-02-26T11:22:42.371Z,4648
2017-02-26T11:23:42.367Z,4728
2017-02-26T11:24:42.011Z,4816
2017-02-26T11:25:41.917Z,4912
2017-02-26T11:26:42.069Z,4984
2017-02-26T11:27:42.102Z,5032
2017-02-26T11:28:42.527Z,5088
2017-02-26T11:29:41.768Z,5132
2017-02-26T11:30:41.644Z,5184
2017-02-26T11:31:42.208Z,5244
2017-02-26T11:32:41.855Z,5324
2017-02-26T11:33:41.887Z,5340
2017-02-26T11:34:42.287Z,5380
2017-02-26T11:35:42.563Z,5412
2017-02-26T11:36:42.746Z,5456
2017-02-26T11:37:42.770Z,5504
2017-02-26T11:38:42.419Z,5544
2017-02-26T11:39:42.039Z,5572
2017-02-26T11:40:42.704Z,5600
2017-02-26T11:41:42.485Z,5644
2017-02-26T11:42:42.126Z,5708
2017-02-26T11:43:42.570Z,5744
2017-02-26T11:44:41.803Z,5764
2017-02-26T11:45:41.807Z,5816
2017-02-26T11:46:42.652Z,5804
2017-02-26T11:47:42.653Z,5852
2017-02-26T11:48:42.687Z,5856
2017-02-26T11:49:43.119Z,5880
2017-02-26T11:50:42.751Z,5948
2017-02-26T11:51:42.408Z,5988
2017-02-26T11:52:43.201Z,5988
2017-02-26T11:53:43.226Z,5968
2017-02-26T11:54:42.457Z,5880
2017-02-26T11:55:42.879Z,5840
2017-02-26T11:56:42.761Z,5744
2017-02-26T11:57:42.934Z,5768
2017-02-26T11:58:42.582Z,5816
2017-02-26T11:59:42.238Z,5876
2017-02-26T12:00:43.417Z,5836
2017-02-26T12:01:42.916Z,5832
2017-02-26T12:02:43.485Z,5848
2017-02-26T12:03:43.101Z,5804
2017-02-26T12:04:43.532Z,5812
2017-02-26T12:05:42.374Z,5824
2017-02-26T12:06:43.448Z,5888
2017-02-26T12:07:42.829Z,5940
2017-02-26T12:08:42.461Z,5964
2017-02-26T12:09:42.886Z,6012
2017-02-26T12:10:43.311Z,6128
2017-02-26T12:11:43.234Z,6376
2017-02-26T12:12:43.373Z,6696
2017-02-26T12:13:43.409Z,7080
2017-02-26T12:14:43.409Z,17068
2017-02-26T12:15:43.459Z,41504
2017-02-26T12:16:42.937Z,47008
2017-02-26T12:17:43.099Z,46720
2017-02-26T12:18:43.537Z,47264
2017-02-26T12:19:43.201Z,45536
2017-02-26T12:20:43.198Z,45824
2017-02-26T12:21:43.489Z,46720
2017-02-26T12:22:44.040Z,47872
2017-02-26T12:23:43.688Z,48928
2017-02-26T12:24:43.714Z,46848
2017-02-26T12:25:43.734Z,49600
2017-02-26T12:26:44.420Z,52832
2017-02-26T12:27:44.199Z,52416
2017-02-26T12:28:43.444Z,51488
2017-02-26T12:29:44.280Z,52256
2017-02-26T12:30:43.477Z,53024
2017-02-26T12:31:44.574Z,50848
2017-02-26T12:32:43.158Z,49824
2017-02-26T12:33:43.975Z,53728
2017-02-26T12:34:43.612Z,56192
2017-02-26T12:35:44.041Z,55200
2017-02-26T12:36:43.914Z,53824
2017-02-26T12:37:43.689Z,53664
2017-02-26T12:38:44.171Z,54144
2017-02-26T12:39:44.156Z,54816
2017-02-26T12:40:44.567Z,52096
2017-02-26T12:41:44.467Z,49504
2017-02-26T12:42:44.254Z,45280
2017-02-26T12:43:43.487Z,34784
2017-02-26T12:44:43.516Z,23552
2017-02-26T12:45:43.950Z,16624
2017-02-26T12:46:44.109Z,15156
2017-02-26T12:47:43.998Z,14940
2017-02-26T12:48:44.867Z,15028
2017-02-26T12:49:44.835Z,14560
2017-02-26T12:50:44.096Z,14512
2017-02-26T12:51:44.376Z,14712
2017-02-26T12:52:44.545Z,14476
2017-02-26T12:53:44.981Z,14560
2017-02-26T12:54:45.015Z,11912
2017-02-26T12:55:45.047Z,13760
2017-02-26T12:56:45.212Z,13732
2017-02-26T12:57:45.094Z,13692
2017-02-26T12:58:44.346Z,12568
2017-02-26T12:59:45.167Z,13016
2017-02-26T13:00:44.811Z,12936
2017-02-26T13:01:45.076Z,12580
2017-02-26T13:02:44.862Z,6328
2017-02-26T13:03:44.502Z,12060
2017-02-26T13:04:44.510Z,10204
2017-02-26T13:05:44.942Z,11268
2017-02-26T13:06:45.060Z,10920
2017-02-26T13:07:44.632Z,10588
2017-02-26T13:08:45.434Z,10456
2017-02-26T13:09:44.675Z,10276
2017-02-26T13:10:45.104Z,10084
2017-02-26T13:11:45.261Z,9904
2017-02-26T13:12:44.372Z,9584
2017-02-26T13:13:44.409Z,9432
2017-02-26T13:14:44.825Z,9340
2017-02-26T13:15:44.867Z,9296
2017-02-26T13:16:45.559Z,9200
2017-02-26T13:17:44.915Z,9288
2017-02-26T13:18:45.806Z,9432
2017-02-26T13:19:45.778Z,9348
2017-02-26T13:20:45.815Z,9244
2017-02-26T13:21:46.095Z,9088
2017-02-26T13:22:45.868Z,8844
2017-02-26T13:23:45.505Z,8676
2017-02-26T13:24:45.557Z,8344
2017-02-26T13:25:45.977Z,8028
2017-02-26T13:26:46.083Z,7892
2017-02-26T13:27:45.261Z,7652
2017-02-26T13:28:45.649Z,7412
2017-02-26T13:29:46.090Z,7344
2017-02-26T13:30:45.318Z,7216
2017-02-26T13:31:46.006Z,7052
2017-02-26T13:32:45.372Z,6964
2017-02-26T13:33:45.421Z,6820
2017-02-26T13:34:45.849Z,6620
2017-02-26T13:35:45.871Z,6556
2017-02-26T13:36:46.171Z,6444
2017-02-26T13:37:46.348Z,6428
2017-02-26T13:38:46.019Z,6384
2017-02-26T13:39:45.637Z,6316
2017-02-26T13:40:46.437Z,6152
2017-02-26T13:41:46.313Z,6076
2017-02-26T13:42:45.698Z,5992
2017-02-26T13:43:46.521Z,6024
2017-02-26T13:44:46.147Z,6088
2017-02-26T13:45:46.188Z,6308
2017-02-26T13:46:46.458Z,6008
2017-02-26T13:47:46.636Z,5828
2017-02-26T13:48:46.664Z,6172
2017-02-26T13:49:46.710Z,6512
2017-02-26T13:50:46.389Z,6324
2017-02-26T13:51:46.123Z,5852
2017-02-26T13:52:46.799Z,5428
2017-02-26T13:53:45.641Z,5412
2017-02-26T13:54:46.457Z,4580
2017-02-26T13:55:46.097Z,5356
2017-02-26T13:56:46.642Z,5356
2017-02-26T13:57:46.164Z,5356
2017-02-26T13:58:46.580Z,5328